Time;durP1;ratioP1;P1;durP2;ratioP2;P2;SDS_P1;SDS_P2;PMS_P1;PMS_P2;Temp;Humidity;BMP_temperature;BMP_pressure;BME280_temperature;BME280_humidity;BME280_pressure;Samples;Min_cycle;Max_cycle;Signal;HPM_P1;HPM_P2
2022/03/31 00:01:40;;;;;;;8.68;1.70;;;;;;;;;;5084742;28;20043;-91
2022/03/31 00:04:07;;;;;;;6.03;1.05;;;;;;;;;;5085599;28;20403;-92
2022/03/31 00:06:33;;;;;;;9.52;1.50;;;;;;;;;;5078978;28;20051;-91
2022/03/31 00:09:03;;;;;;;7.95;3.25;;;;;;;;;;5077551;28;20149;-91
2022/03/31 00:11:30;;;;;;;9.50;1.42;;;;;;;;;;5080567;28;20032;-90
2022/03/31 00:13:56;;;;;;;5.18;1.25;;;;;;;;;;5090043;28;20032;-90
2022/03/31 00:16:22;;;;;;;4.00;0.98;;;;;;;;;;5082598;28;20036;-91
2022/03/31 00:19:04;;;;;;;6.35;1.00;;;;;;;;;;5073283;28;20062;-90
2022/03/31 00:21:32;;;;;;;3.88;0.88;;;;;;;;;;5069497;28;20059;-90
2022/03/31 00:24:34;;;;;;;5.10;0.80;;;;;;;;;;5077357;28;20398;-90
2022/03/31 00:27:00;;;;;;;4.70;1.13;;;;;;;;;;5092451;28;20038;-90
2022/03/31 00:29:31;;;;;;;3.78;1.02;;;;;;;;;;5085014;28;20036;-90
2022/03/31 00:31:57;;;;;;;5.15;1.20;;;;;;;;;;5090582;28;20040;-89
2022/03/31 00:37:35;;;;;;;7.13;1.20;;;;;;;;;;5088696;28;20027;-90
2022/03/31 00:40:01;;;;;;;7.30;1.35;;;;;;;;;;5081867;28;20490;-90
2022/03/31 00:42:40;;;;;;;3.85;1.30;;;;;;;;;;5091280;28;20062;-89
2022/03/31 00:45:11;;;;;;;5.25;0.85;;;;;;;;;;5089365;28;20044;-91
2022/03/31 00:47:40;;;;;;;4.10;1.13;;;;;;;;;;5087675;28;20028;-90
2022/03/31 00:50:06;;;;;;;6.85;1.88;;;;;;;;;;5092356;28;20044;-90
2022/03/31 00:52:33;;;;;;;12.40;2.22;;;;;;;;;;5089062;28;20151;-90
2022/03/31 00:55:04;;;;;;;8.10;1.90;;;;;;;;;;5084133;28;20044;-91
2022/03/31 00:57:31;;;;;;;7.90;1.73;;;;;;;;;;5086429;28;20036;-91
2022/03/31 01:00:25;;;;;;;6.68;1.95;;;;;;;;;;4740486;28;10000444;-92
2022/03/31 01:02:52;;;;;;;9.93;2.63;;;;;;;;;;5086672;28;20035;-91
2022/03/31 01:05:23;;;;;;;5.40;1.35;;;;;;;;;;5084415;28;20036;-91
2022/03/31 01:07:49;;;;;;;5.22;1.25;;;;;;;;;;5092767;28;20032;-90
2022/03/31 01:10:16;;;;;;;5.38;1.50;;;;;;;;;;5089371;28;20029;-91
2022/03/31 01:12:43;;;;;;;6.45;1.25;;;;;;;;;;5083999;28;20036;-91
2022/03/31 01:15:12;;;;;;;3.88;0.90;;;;;;;;;;5086011;28;20036;-91
2022/03/31 01:17:40;;;;;;;3.97;0.80;;;;;;;;;;5088779;28;20028;-90
2022/03/31 01:20:08;;;;;;;3.70;0.77;;;;;;;;;;5082216;28;20042;-92
2022/03/31 01:22:59;;;;;;;2.38;0.65;;;;;;;;;;5082740;28;20090;-91
2022/03/31 01:25:32;;;;;;;4.60;0.70;;;;;;;;;;5052372;28;20033;-91
2022/03/31 01:27:58;;;;;;;4.32;0.73;;;;;;;;;;5087175;28;20521;-90
2022/03/31 01:30:25;;;;;;;4.22;1.40;;;;;;;;;;5087385;28;20040;-91
2022/03/31 01:32:52;;;;;;;8.52;0.88;;;;;;;;;;5094071;28;20039;-91
2022/03/31 01:35:25;;;;;;;7.60;1.33;;;;;;;;;;5090518;28;20059;-91
2022/03/31 01:37:52;;;;;;;10.18;1.48;;;;;;;;;;5083638;28;20407;-91
2022/03/31 01:40:31;;;;;;;5.47;1.70;;;;;;;;;;5094677;28;20036;-90
2022/03/31 01:43:02;;;;;;;4.20;1.20;;;;;;;;;;5089775;28;20036;-91
2022/03/31 01:45:39;;;;;;;7.68;1.40;;;;;;;;;;4733141;28;10000051;-91
2022/03/31 01:48:13;;;;;;;7.85;1.73;;;;;;;;;;5090002;28;20027;-92
2022/03/31 01:50:39;;;;;;;5.30;1.73;;;;;;;;;;5079906;28;20478;-91
2022/03/31 01:53:06;;;;;;;7.70;1.67;;;;;;;;;;5081618;28;20372;-91
2022/03/31 01:55:44;;;;;;;8.38;2.03;;;;;;;;;;5080285;28;20059;-90
2022/03/31 01:58:10;;;;;;;10.57;2.70;;;;;;;;;;5084166;28;20478;-90
2022/03/31 02:00:38;;;;;;;12.43;2.13;;;;;;;;;;5091988;28;20068;-89
2022/03/31 02:03:04;;;;;;;11.65;3.30;;;;;;;;;;5091536;28;20036;-92
2022/03/31 02:05:31;;;;;;;13.10;3.15;;;;;;;;;;5086295;28;20038;-90
2022/03/31 02:07:57;;;;;;;7.65;2.67;;;;;;;;;;5084321;28;20103;-90
2022/03/31 02:10:27;;;;;;;9.38;2.47;;;;;;;;;;5085937;28;20036;-90
2022/03/31 02:12:54;;;;;;;9.75;2.05;;;;;;;;;;5081699;28;20036;-90
2022/03/31 02:15:22;;;;;;;11.20;2.95;;;;;;;;;;5092385;28;20428;-90
2022/03/31 02:17:52;;;;;;;10.30;3.03;;;;;;;;;;5092939;28;20032;-92
2022/03/31 02:20:24;;;;;;;8.32;2.88;;;;;;;;;;5093639;28;20670;-89
2022/03/31 02:22:51;;;;;;;12.55;3.17;;;;;;;;;;5100933;28;20047;-88
2022/03/31 02:25:17;;;;;;;23.45;4.97;;;;;;;;;;5089091;28;20482;-89
2022/03/31 02:27:43;;;;;;;14.10;3.92;;;;;;;;;;5109664;28;20047;-90
2022/03/31 02:30:10;;;;;;;9.50;2.83;;;;;;;;;;5077452;28;20223;-88
2022/03/31 02:32:37;;;;;;;12.15;3.35;;;;;;;;;;5092988;28;20035;-89
2022/03/31 02:35:05;;;;;;;10.85;3.65;;;;;;;;;;5074015;28;20036;-91
2022/03/31 02:37:32;;;;;;;10.68;3.13;;;;;;;;;;5093908;28;20120;-89
2022/03/31 02:39:58;;;;;;;11.95;3.47;;;;;;;;;;5081690;28;20123;-90
2022/03/31 02:42:24;;;;;;;15.82;3.97;;;;;;;;;;5082673;28;20024;-89
2022/03/31 02:44:51;;;;;;;8.43;2.83;;;;;;;;;;5079363;28;20067;-89
2022/03/31 02:47:17;;;;;;;10.25;3.05;;;;;;;;;;5076665;28;20072;-88
2022/03/31 02:49:44;;;;;;;11.68;3.13;;;;;;;;;;5083554;28;20043;-89
2022/03/31 02:52:17;;;;;;;11.75;3.47;;;;;;;;;;5079428;28;20478;-90
2022/03/31 02:57:28;;;;;;;8.32;3.10;;;;;;;;;;5089323;28;20105;-89
2022/03/31 02:59:55;;;;;;;8.85;3.00;;;;;;;;;;5083945;28;20441;-88
2022/03/31 03:02:23;;;;;;;14.02;3.28;;;;;;;;;;5092309;28;20028;-88
2022/03/31 03:04:50;;;;;;;8.82;2.45;;;;;;;;;;5109078;28;20368;-89
2022/03/31 03:07:16;;;;;;;7.60;2.83;;;;;;;;;;5087924;28;20032;-89
2022/03/31 03:09:43;;;;;;;6.97;2.65;;;;;;;;;;5085343;28;20892;-89
2022/03/31 03:12:10;;;;;;;7.25;2.97;;;;;;;;;;5082541;28;20090;-89
2022/03/31 03:14:41;;;;;;;13.23;4.18;;;;;;;;;;5093764;28;20137;-88
2022/03/31 03:17:08;;;;;;;11.10;4.20;;;;;;;;;;5081770;28;20042;-88
2022/03/31 03:19:42;;;;;;;11.82;4.15;;;;;;;;;;5079864;28;20036;-89
2022/03/31 03:22:08;;;;;;;16.90;5.35;;;;;;;;;;5090558;28;20126;-89
2022/03/31 03:25:00;;;;;;;15.27;5.50;;;;;;;;;;4728198;28;10000365;-89
2022/03/31 03:27:27;;;;;;;16.38;6.72;;;;;;;;;;5091256;28;20495;-89
2022/03/31 03:29:54;;;;;;;17.80;6.75;;;;;;;;;;5082096;28;20368;-88
2022/03/31 03:32:36;;;;;;;11.52;4.60;;;;;;;;;;5080937;28;20040;-89
2022/03/31 03:35:10;;;;;;;13.98;3.92;;;;;;;;;;5092690;28;20483;-88
2022/03/31 03:37:47;;;;;;;16.83;4.65;;;;;;;;;;5087762;28;20174;-88
2022/03/31 03:40:14;;;;;;;17.83;4.72;;;;;;;;;;5097601;28;20036;-86
2022/03/31 03:42:43;;;;;;;14.80;4.43;;;;;;;;;;5089222;28;20031;-87
2022/03/31 03:45:13;;;;;;;8.90;3.45;;;;;;;;;;5090807;28;20032;-86
2022/03/31 03:47:54;;;;;;;13.77;3.20;;;;;;;;;;5101979;28;20093;-84
2022/03/31 03:50:20;;;;;;;14.27;3.25;;;;;;;;;;5080629;28;20036;-87
2022/03/31 03:52:47;;;;;;;14.77;3.25;;;;;;;;;;5081612;28;20093;-87
2022/03/31 03:55:14;;;;;;;9.48;2.75;;;;;;;;;;5084940;28;20043;-86
2022/03/31 03:57:41;;;;;;;7.95;2.63;;;;;;;;;;5108154;28;20459;-87
2022/03/31 04:00:09;;;;;;;8.77;2.15;;;;;;;;;;5091675;28;20036;-86
2022/03/31 04:02:36;;;;;;;8.73;1.13;;;;;;;;;;5100827;28;20055;-87
2022/03/31 04:05:08;;;;;;;4.85;0.85;;;;;;;;;;5078652;28;20043;-87
2022/03/31 04:07:34;;;;;;;4.18;0.95;;;;;;;;;;5080312;28;20036;-88
2022/03/31 04:10:01;;;;;;;6.43;0.93;;;;;;;;;;5081410;28;20038;-87
2022/03/31 04:12:27;;;;;;;4.88;0.70;;;;;;;;;;5079559;28;20036;-89
2022/03/31 04:14:56;;;;;;;8.73;1.20;;;;;;;;;;5081520;28;20120;-90
2022/03/31 04:17:22;;;;;;;5.13;0.80;;;;;;;;;;5091854;28;20048;-86
2022/03/31 04:20:03;;;;;;;12.27;1.17;;;;;;;;;;5085375;28;20054;-86
2022/03/31 04:22:33;;;;;;;8.30;1.20;;;;;;;;;;5083059;28;20037;-88
2022/03/31 04:25:02;;;;;;;7.10;0.80;;;;;;;;;;5087202;28;20116;-89
2022/03/31 04:27:29;;;;;;;6.93;0.88;;;;;;;;;;5080079;28;20047;-89
2022/03/31 04:30:01;;;;;;;5.20;0.80;;;;;;;;;;5107472;28;20035;-89
2022/03/31 04:32:27;;;;;;;4.22;0.60;;;;;;;;;;5107125;28;20024;-88
2022/03/31 04:35:09;;;;;;;6.68;0.80;;;;;;;;;;5091160;28;20036;-88
2022/03/31 04:37:35;;;;;;;5.80;0.40;;;;;;;;;;5079335;28;20063;-89
2022/03/31 04:40:02;;;;;;;4.78;0.50;;;;;;;;;;5084122;28;20103;-87
2022/03/31 04:42:28;;;;;;;8.50;0.77;;;;;;;;;;5090990;28;20483;-89
2022/03/31 04:44:55;;;;;;;4.00;0.60;;;;;;;;;;5087505;28;20064;-88
2022/03/31 04:47:21;;;;;;;10.95;1.08;;;;;;;;;;5088869;28;20032;-87
2022/03/31 04:49:51;;;;;;;6.53;0.80;;;;;;;;;;5086906;28;20541;-89
2022/03/31 04:52:23;;;;;;;5.28;0.80;;;;;;;;;;5072928;28;20052;-88
2022/03/31 04:54:50;;;;;;;7.97;0.85;;;;;;;;;;5071673;28;20037;-90
2022/03/31 04:57:18;;;;;;;4.65;0.63;;;;;;;;;;5088650;28;20028;-87
2022/03/31 04:59:45;;;;;;;7.60;0.50;;;;;;;;;;5088190;28;20368;-90
2022/03/31 05:02:12;;;;;;;5.90;0.90;;;;;;;;;;5092842;28;20060;-89
2022/03/31 05:04:39;;;;;;;7.22;1.00;;;;;;;;;;5065975;28;20093;-90
2022/03/31 05:07:09;;;;;;;13.20;0.88;;;;;;;;;;5095925;28;20086;-89
2022/03/31 05:09:36;;;;;;;7.40;0.40;;;;;;;;;;5095887;28;20024;-90
2022/03/31 05:12:08;;;;;;;41.15;2.47;;;;;;;;;;5095763;28;20126;-89
2022/03/31 05:14:35;;;;;;;11.05;1.00;;;;;;;;;;5096776;28;20032;-90
2022/03/31 05:17:02;;;;;;;6.75;1.13;;;;;;;;;;5088422;28;20462;-90
2022/03/31 05:19:28;;;;;;;7.90;0.93;;;;;;;;;;5085270;28;20037;-90
2022/03/31 05:22:00;;;;;;;6.57;1.02;;;;;;;;;;5089304;28;20032;-90
2022/03/31 05:24:26;;;;;;;9.80;2.30;;;;;;;;;;5075751;28;20063;-90
2022/03/31 05:26:53;;;;;;;17.70;6.18;;;;;;;;;;5086644;28;20050;-90
2022/03/31 05:29:32;;;;;;;29.73;11.80;;;;;;;;;;5080759;28;20068;-89
2022/03/31 05:31:59;;;;;;;32.35;10.85;;;;;;;;;;5089570;28;20028;-89
2022/03/31 05:34:30;;;;;;;20.50;6.63;;;;;;;;;;5095638;28;20028;-90
2022/03/31 05:36:56;;;;;;;8.93;2.10;;;;;;;;;;5093033;28;20084;-91
2022/03/31 05:39:27;;;;;;;6.53;1.77;;;;;;;;;;5089874;28;20100;-90
2022/03/31 05:41:53;;;;;;;5.75;0.60;;;;;;;;;;5095071;28;20028;-90
2022/03/31 05:44:20;;;;;;;4.45;0.73;;;;;;;;;;5091869;28;20034;-91
2022/03/31 05:46:48;;;;;;;3.00;0.80;;;;;;;;;;4732027;28;10000277;-91
2022/03/31 05:49:14;;;;;;;9.55;1.15;;;;;;;;;;5093936;28;20085;-89
2022/03/31 05:51:41;;;;;;;8.02;0.63;;;;;;;;;;5087930;28;20063;-89
2022/03/31 05:54:07;;;;;;;8.57;0.90;;;;;;;;;;5056212;28;20045;-90
2022/03/31 05:56:34;;;;;;;9.30;0.70;;;;;;;;;;5058692;28;20029;-89
2022/03/31 05:59:00;;;;;;;5.20;0.90;;;;;;;;;;5057511;28;20025;-88
2022/03/31 06:01:27;;;;;;;7.80;0.75;;;;;;;;;;5057829;28;20031;-90
2022/03/31 06:03:55;;;;;;;5.82;0.90;;;;;;;;;;5049768;28;20566;-89
2022/03/31 06:06:23;;;;;;;16.38;6.53;;;;;;;;;;5078419;28;20031;-90
2022/03/31 06:08:50;;;;;;;21.98;8.70;;;;;;;;;;5057550;28;20479;-91
2022/03/31 06:11:30;;;;;;;22.23;9.38;;;;;;;;;;5057652;28;20032;-87
2022/03/31 06:13:57;;;;;;;64.05;34.00;;;;;;;;;;5050927;28;20032;-88
2022/03/31 06:16:23;;;;;;;71.25;40.33;;;;;;;;;;5050215;28;20123;-88
2022/03/31 06:18:49;;;;;;;74.93;41.13;;;;;;;;;;5057391;28;20036;-90
2022/03/31 06:21:16;;;;;;;72.45;41.45;;;;;;;;;;5046337;28;20044;-89
2022/03/31 06:23:42;;;;;;;80.70;41.75;;;;;;;;;;5050493;28;20057;-89
2022/03/31 06:26:09;;;;;;;78.38;41.22;;;;;;;;;;5056715;28;20060;-89
2022/03/31 06:28:35;;;;;;;78.03;42.22;;;;;;;;;;5057110;28;20029;-87
2022/03/31 06:31:03;;;;;;;78.90;43.33;;;;;;;;;;5049520;28;20033;-88
2022/03/31 06:33:31;;;;;;;74.82;42.15;;;;;;;;;;5050822;28;20112;-87
2022/03/31 06:35:57;;;;;;;83.40;43.10;;;;;;;;;;5056793;28;20032;-88
2022/03/31 06:38:23;;;;;;;84.75;43.60;;;;;;;;;;5056506;28;20479;-88
2022/03/31 06:43:45;;;;;;;78.40;41.42;;;;;;;;;;5074384;28;20047;-87
2022/03/31 06:46:12;;;;;;;81.50;41.70;;;;;;;;;;5056594;28;20037;-89
2022/03/31 06:48:41;;;;;;;72.03;38.85;;;;;;;;;;5056915;28;20028;-88
2022/03/31 06:51:08;;;;;;;79.55;38.78;;;;;;;;;;5083945;28;20547;-88
2022/03/31 06:53:38;;;;;;;72.38;39.47;;;;;;;;;;5069227;28;20040;-88
2022/03/31 06:56:18;;;;;;;67.85;37.90;;;;;;;;;;5052830;28;20057;-88
2022/03/31 06:58:45;;;;;;;75.07;39.40;;;;;;;;;;5066795;28;20031;-88
2022/03/31 07:01:12;;;;;;;75.75;42.17;;;;;;;;;;5073989;28;20063;-88
2022/03/31 07:03:39;;;;;;;72.57;39.42;;;;;;;;;;5056700;28;20032;-88
2022/03/31 07:06:07;;;;;;;65.97;37.90;;;;;;;;;;5054313;28;20087;-87
2022/03/31 07:08:39;;;;;;;70.15;39.67;;;;;;;;;;5056498;28;20060;-89
2022/03/31 07:11:06;;;;;;;83.57;44.75;;;;;;;;;;5055754;28;20086;-89
2022/03/31 07:13:32;;;;;;;70.93;40.70;;;;;;;;;;5056082;28;20032;-87
2022/03/31 07:15:59;;;;;;;76.45;42.35;;;;;;;;;;5055977;28;20037;-88
2022/03/31 07:18:25;;;;;;;82.20;41.85;;;;;;;;;;5041995;28;20518;-88
2022/03/31 07:20:57;;;;;;;71.97;39.20;;;;;;;;;;5055426;28;20039;-89
2022/03/31 07:23:25;;;;;;;63.13;36.75;;;;;;;;;;5073768;28;20028;-89
2022/03/31 07:25:55;;;;;;;70.15;38.55;;;;;;;;;;5056370;28;20055;-88
2022/03/31 07:28:26;;;;;;;71.32;39.45;;;;;;;;;;5056014;28;20040;-89
2022/03/31 07:30:53;;;;;;;79.30;44.92;;;;;;;;;;5055943;28;20498;-88
2022/03/31 07:33:32;;;;;;;73.95;39.55;;;;;;;;;;5056028;28;20123;-89
2022/03/31 07:35:58;;;;;;;77.53;40.03;;;;;;;;;;5036596;28;20158;-88
2022/03/31 07:38:26;;;;;;;71.85;39.65;;;;;;;;;;5049145;28;20048;-88
2022/03/31 07:40:53;;;;;;;67.10;37.92;;;;;;;;;;5062593;28;20497;-88
2022/03/31 07:43:37;;;;;;;74.28;36.15;;;;;;;;;;5049130;28;20032;-88
2022/03/31 07:46:04;;;;;;;65.78;34.45;;;;;;;;;;5043550;28;20024;-88
2022/03/31 07:48:45;;;;;;;75.15;40.10;;;;;;;;;;5073098;28;20048;-88
2022/03/31 07:51:11;;;;;;;69.75;37.85;;;;;;;;;;5063092;28;20514;-88
2022/03/31 07:53:38;;;;;;;79.05;38.83;;;;;;;;;;5082407;28;20049;-88
2022/03/31 07:56:12;;;;;;;67.13;38.13;;;;;;;;;;5060391;28;20484;-87
2022/03/31 07:58:39;;;;;;;68.80;35.95;;;;;;;;;;5075792;28;20028;-88
2022/03/31 08:01:05;;;;;;;70.00;38.45;;;;;;;;;;5057343;28;20028;-87
2022/03/31 08:03:31;;;;;;;66.93;37.85;;;;;;;;;;5057734;28;20055;-90
2022/03/31 08:05:59;;;;;;;71.40;37.17;;;;;;;;;;5086308;28;20089;-88
2022/03/31 08:08:26;;;;;;;65.80;38.25;;;;;;;;;;5093431;28;20024;-88
2022/03/31 08:10:52;;;;;;;56.13;32.95;;;;;;;;;;5060380;28;20137;-87
2022/03/31 08:13:27;;;;;;;62.13;32.67;;;;;;;;;;5087725;28;20036;-87
2022/03/31 08:15:54;;;;;;;58.20;30.95;;;;;;;;;;5075721;28;20119;-89
2022/03/31 08:18:26;;;;;;;68.53;36.35;;;;;;;;;;5075658;28;20059;-89
2022/03/31 08:20:53;;;;;;;70.32;36.15;;;;;;;;;;5075315;28;20387;-88
2022/03/31 08:23:21;;;;;;;63.38;34.15;;;;;;;;;;5093406;28;20107;-88
2022/03/31 08:25:48;;;;;;;60.17;30.67;;;;;;;;;;5075082;28;20033;-88
2022/03/31 08:28:15;;;;;;;63.90;31.85;;;;;;;;;;5064767;28;20041;-88
2022/03/31 08:30:41;;;;;;;55.60;30.35;;;;;;;;;;5074637;28;20093;-89
2022/03/31 08:33:10;;;;;;;63.50;30.40;;;;;;;;;;5058155;28;20033;-88
2022/03/31 08:35:36;;;;;;;50.45;28.67;;;;;;;;;;5074623;28;20093;-88
2022/03/31 08:38:10;;;;;;;53.53;28.85;;;;;;;;;;5092711;28;20107;-89
2022/03/31 08:40:37;;;;;;;48.70;27.40;;;;;;;;;;5084288;28;20383;-89
2022/03/31 08:43:08;;;;;;;55.53;28.98;;;;;;;;;;5072525;28;20498;-89
2022/03/31 08:45:36;;;;;;;56.42;27.02;;;;;;;;;;5060913;28;20044;-88
2022/03/31 08:48:12;;;;;;;56.55;27.20;;;;;;;;;;5065603;28;20387;-89
2022/03/31 08:50:38;;;;;;;52.13;26.08;;;;;;;;;;5060936;28;20028;-88
2022/03/31 08:53:05;;;;;;;53.75;28.23;;;;;;;;;;5074665;28;20097;-88
2022/03/31 08:55:41;;;;;;;54.65;28.70;;;;;;;;;;5090048;28;20051;-89
2022/03/31 08:58:09;;;;;;;59.70;29.83;;;;;;;;;;5066579;28;20368;-88
2022/03/31 09:00:36;;;;;;;53.83;27.00;;;;;;;;;;5054767;28;20032;-89
2022/03/31 09:03:12;;;;;;;51.80;24.00;;;;;;;;;;5059634;28;20442;-88
2022/03/31 09:05:56;;;;;;;41.70;23.52;;;;;;;;;;5089278;28;20491;-89
2022/03/31 09:08:24;;;;;;;47.58;23.20;;;;;;;;;;5088829;28;20506;-89
2022/03/31 09:10:53;;;;;;;44.08;23.80;;;;;;;;;;5087550;28;20036;-88
2022/03/31 09:13:21;;;;;;;53.28;26.15;;;;;;;;;;5068570;28;20047;-90
2022/03/31 09:15:56;;;;;;;50.55;24.90;;;;;;;;;;5065254;28;20043;-88
2022/03/31 09:18:23;;;;;;;43.42;22.58;;;;;;;;;;5069990;28;20483;-88
2022/03/31 09:20:50;;;;;;;42.15;20.65;;;;;;;;;;5074175;28;20035;-88
2022/03/31 09:23:18;;;;;;;40.17;20.63;;;;;;;;;;5073770;28;20118;-87
2022/03/31 09:25:48;;;;;;;36.58;18.85;;;;;;;;;;5068726;28;20479;-88
2022/03/31 09:28:19;;;;;;;39.22;18.50;;;;;;;;;;5054844;28;20032;-87
2022/03/31 09:30:47;;;;;;;35.90;18.88;;;;;;;;;;5071794;28;20032;-89
2022/03/31 09:33:33;;;;;;;55.00;19.33;;;;;;;;;;5071225;28;20090;-88
2022/03/31 09:36:05;;;;;;;47.70;18.42;;;;;;;;;;5063958;28;20051;-89
2022/03/31 09:38:36;;;;;;;37.20;18.30;;;;;;;;;;5074161;28;20063;-88
2022/03/31 09:41:03;;;;;;;36.63;14.90;;;;;;;;;;5091184;28;20391;-89
2022/03/31 09:43:49;;;;;;;29.83;14.30;;;;;;;;;;5092577;28;20197;-88
2022/03/31 09:46:21;;;;;;;36.70;14.88;;;;;;;;;;5089899;28;20131;-89
2022/03/31 09:48:50;;;;;;;34.03;14.98;;;;;;;;;;5075863;28;20039;-89
2022/03/31 09:51:28;;;;;;;28.38;12.98;;;;;;;;;;5094191;28;20078;-88
2022/03/31 09:53:58;;;;;;;33.20;13.35;;;;;;;;;;5074211;28;20044;-88
2022/03/31 09:56:25;;;;;;;27.20;13.90;;;;;;;;;;5094689;28;20111;-88
2022/03/31 09:58:54;;;;;;;31.40;12.88;;;;;;;;;;5063874;28;20397;-88
2022/03/31 10:01:21;;;;;;;25.73;12.55;;;;;;;;;;5058139;28;20033;-87
2022/03/31 10:03:54;;;;;;;33.65;13.23;;;;;;;;;;5071820;28;20028;-88
2022/03/31 10:06:21;;;;;;;30.73;12.32;;;;;;;;;;5066739;28;20541;-88
2022/03/31 10:08:52;;;;;;;29.23;12.25;;;;;;;;;;5076409;28;20182;-88
2022/03/31 10:11:20;;;;;;;31.83;12.38;;;;;;;;;;5062533;28;20039;-89
2022/03/31 10:14:08;;;;;;;34.78;12.75;;;;;;;;;;5077345;28;20032;-90
2022/03/31 10:16:38;;;;;;;33.50;14.27;;;;;;;;;;5069303;28;20070;-86
2022/03/31 10:19:10;;;;;;;40.08;15.75;;;;;;;;;;4722831;28;9999624;-86
2022/03/31 10:21:36;;;;;;;32.20;14.60;;;;;;;;;;5068135;28;20039;-86
2022/03/31 10:27:01;;;;;;;25.35;11.32;;;;;;;;;;5094714;28;20117;-86
2022/03/31 10:32:28;;;;;;;25.92;10.77;;;;;;;;;;5093508;28;20505;-86
2022/03/31 10:35:02;;;;;;;32.60;12.82;;;;;;;;;;5070952;28;20028;-87
2022/03/31 10:37:32;;;;;;;30.92;12.85;;;;;;;;;;5085880;28;20040;-87
2022/03/31 10:39:59;;;;;;;27.70;11.02;;;;;;;;;;5086800;28;20028;-86
2022/03/31 10:42:25;;;;;;;27.23;12.60;;;;;;;;;;5068885;28;20135;-87
2022/03/31 10:45:04;;;;;;;33.80;12.27;;;;;;;;;;5065248;28;20029;-87
2022/03/31 10:47:34;;;;;;;39.72;12.60;;;;;;;;;;5073187;28;20605;-86
2022/03/31 10:50:07;;;;;;;31.70;12.85;;;;;;;;;;5069661;28;20437;-87
2022/03/31 10:52:36;;;;;;;23.50;11.88;;;;;;;;;;5057360;28;20049;-86
2022/03/31 10:55:19;;;;;;;29.42;13.80;;;;;;;;;;5043518;28;20037;-87
2022/03/31 10:57:59;;;;;;;28.58;11.70;;;;;;;;;;5065561;28;20035;-86
2022/03/31 11:00:27;;;;;;;26.48;12.20;;;;;;;;;;5053061;28;20036;-87
2022/03/31 11:02:55;;;;;;;27.83;12.00;;;;;;;;;;5029406;28;20365;-87
2022/03/31 11:05:29;;;;;;;29.23;11.60;;;;;;;;;;5038494;28;20037;-87
2022/03/31 11:08:06;;;;;;;33.35;11.35;;;;;;;;;;5042105;28;20043;-88
2022/03/31 11:10:47;;;;;;;27.33;11.90;;;;;;;;;;5065919;28;20097;-87
2022/03/31 11:13:45;;;;;;;32.13;11.55;;;;;;;;;;5045610;28;20036;-87
2022/03/31 11:16:14;;;;;;;33.38;13.90;;;;;;;;;;5044284;28;20064;-88
2022/03/31 11:18:54;;;;;;;41.00;14.63;;;;;;;;;;5071912;28;20479;-86
2022/03/31 11:21:21;;;;;;;31.55;13.18;;;;;;;;;;5062833;28;20033;-87
2022/03/31 11:23:48;;;;;;;27.30;12.98;;;;;;;;;;5038762;28;20637;-87
2022/03/31 11:26:27;;;;;;;30.10;13.13;;;;;;;;;;5069525;28;20051;-85
2022/03/31 11:28:59;;;;;;;29.38;12.93;;;;;;;;;;5069658;28;20043;-86
2022/03/31 11:31:26;;;;;;;28.73;12.82;;;;;;;;;;5051051;28;20041;-87
2022/03/31 11:33:58;;;;;;;24.27;12.40;;;;;;;;;;5066178;28;20840;-86
2022/03/31 11:36:25;;;;;;;35.38;15.30;;;;;;;;;;5045327;28;20036;-87
2022/03/31 11:39:01;;;;;;;27.65;15.88;;;;;;;;;;5047681;28;20040;-87
2022/03/31 11:41:39;;;;;;;29.73;14.82;;;;;;;;;;5047666;28;20041;-87
2022/03/31 11:44:09;;;;;;;31.92;13.45;;;;;;;;;;5041960;28;20071;-87
2022/03/31 11:46:43;;;;;;;28.95;12.85;;;;;;;;;;5048261;28;20031;-84
2022/03/31 11:49:13;;;;;;;37.53;13.88;;;;;;;;;;5051023;28;20051;-84
2022/03/31 11:51:48;;;;;;;32.97;13.73;;;;;;;;;;5071886;28;20445;-84
2022/03/31 11:54:14;;;;;;;25.55;12.40;;;;;;;;;;5076213;28;20568;-84
2022/03/31 11:56:45;;;;;;;33.08;13.40;;;;;;;;;;5078901;28;20101;-85
2022/03/31 11:59:14;;;;;;;21.83;12.48;;;;;;;;;;5090570;28;20074;-86
2022/03/31 12:01:45;;;;;;;31.90;13.60;;;;;;;;;;5107800;28;20032;-86
2022/03/31 12:04:21;;;;;;;36.53;14.35;;;;;;;;;;5084377;28;20036;-86
2022/03/31 12:06:48;;;;;;;35.75;13.52;;;;;;;;;;5083685;28;20024;-86
2022/03/31 12:09:26;;;;;;;27.45;14.18;;;;;;;;;;5096532;28;20042;-86
2022/03/31 12:11:53;;;;;;;32.20;13.48;;;;;;;;;;5090546;28;20031;-86
2022/03/31 12:14:30;;;;;;;30.98;13.65;;;;;;;;;;5091240;28;20035;-85
2022/03/31 12:16:59;;;;;;;24.63;12.98;;;;;;;;;;5090863;28;20165;-85
2022/03/31 12:19:26;;;;;;;27.80;14.85;;;;;;;;;;5090870;28;20035;-85
2022/03/31 12:21:57;;;;;;;32.38;14.38;;;;;;;;;;5091449;28;20028;-86
2022/03/31 12:24:23;;;;;;;31.17;14.63;;;;;;;;;;5094106;28;20037;-85
2022/03/31 12:26:53;;;;;;;24.38;13.75;;;;;;;;;;5081224;28;20047;-85
2022/03/31 12:29:20;;;;;;;31.50;15.43;;;;;;;;;;5088027;28;20024;-86
2022/03/31 12:31:48;;;;;;;37.97;20.00;;;;;;;;;;5090369;28;20042;-85
2022/03/31 12:34:14;;;;;;;43.58;23.38;;;;;;;;;;5088913;28;20036;-85
2022/03/31 12:36:43;;;;;;;54.00;25.17;;;;;;;;;;5084488;28;20036;-86
2022/03/31 12:39:09;;;;;;;48.72;25.27;;;;;;;;;;5086091;28;20062;-85
2022/03/31 12:41:37;;;;;;;40.35;24.83;;;;;;;;;;5089720;28;20040;-85
2022/03/31 12:44:05;;;;;;;42.85;23.13;;;;;;;;;;5082094;28;20024;-84
2022/03/31 12:46:42;;;;;;;42.10;22.02;;;;;;;;;;5092281;28;20044;-85
2022/03/31 12:49:10;;;;;;;42.15;23.90;;;;;;;;;;5072546;28;20036;-85
2022/03/31 12:51:52;;;;;;;50.85;25.48;;;;;;;;;;5085189;28;20426;-85
2022/03/31 12:54:19;;;;;;;50.50;26.77;;;;;;;;;;5106279;28;20044;-85
2022/03/31 12:56:47;;;;;;;57.15;28.05;;;;;;;;;;5080847;28;20038;-85
2022/03/31 12:59:23;;;;;;;56.30;27.23;;;;;;;;;;5090115;28;20040;-85
2022/03/31 13:02:00;;;;;;;53.22;30.25;;;;;;;;;;5084622;28;20028;-85
2022/03/31 13:04:27;;;;;;;53.08;29.40;;;;;;;;;;5081254;28;20032;-85
2022/03/31 13:06:54;;;;;;;59.33;31.05;;;;;;;;;;5086495;28;20119;-85
2022/03/31 13:09:22;;;;;;;55.58;30.10;;;;;;;;;;5081076;28;20443;-84
2022/03/31 13:11:51;;;;;;;57.80;29.40;;;;;;;;;;5099942;28;20028;-84
2022/03/31 13:14:20;;;;;;;53.75;29.58;;;;;;;;;;5088724;28;20032;-85
2022/03/31 13:16:47;;;;;;;55.35;28.38;;;;;;;;;;5065952;28;20082;-85
2022/03/31 13:19:14;;;;;;;52.17;29.10;;;;;;;;;;5105120;28;20391;-85
2022/03/31 13:21:40;;;;;;;70.30;37.72;;;;;;;;;;5088200;28;20033;-84
2022/03/31 13:24:12;;;;;;;86.03;46.63;;;;;;;;;;5094706;28;20036;-83
2022/03/31 13:26:39;;;;;;;87.63;50.92;;;;;;;;;;5080909;28;20035;-84
2022/03/31 13:29:05;;;;;;;82.25;47.15;;;;;;;;;;5087270;28;20032;-83
2022/03/31 13:31:32;;;;;;;64.63;35.65;;;;;;;;;;5110733;28;20040;-83
2022/03/31 13:33:59;;;;;;;56.60;32.72;;;;;;;;;;5084176;28;20085;-84
2022/03/31 13:36:29;;;;;;;68.43;34.22;;;;;;;;;;5089073;28;20552;-83
2022/03/31 13:38:59;;;;;;;64.32;33.42;;;;;;;;;;5097452;28;20020;-84
2022/03/31 13:41:27;;;;;;;76.60;37.78;;;;;;;;;;5084918;28;20032;-84
2022/03/31 13:43:55;;;;;;;81.38;38.33;;;;;;;;;;5084795;28;20036;-84
2022/03/31 13:46:24;;;;;;;91.03;42.75;;;;;;;;;;5086399;28;20032;-84
2022/03/31 13:48:59;;;;;;;93.90;45.47;;;;;;;;;;5079606;28;20032;-84
2022/03/31 13:51:25;;;;;;;88.72;45.67;;;;;;;;;;5086902;28;20458;-83
2022/03/31 13:53:56;;;;;;;91.03;47.72;;;;;;;;;;5088820;28;20047;-83
2022/03/31 13:56:24;;;;;;;94.25;49.10;;;;;;;;;;5093932;28;20044;-83
2022/03/31 14:01:38;;;;;;;83.57;43.03;;;;;;;;;;5091429;28;20035;-84
2022/03/31 14:04:05;;;;;;;84.18;40.83;;;;;;;;;;5087819;28;20111;-84
2022/03/31 14:06:31;;;;;;;73.93;39.78;;;;;;;;;;5075706;28;20071;-84
2022/03/31 14:09:05;;;;;;;72.43;37.50;;;;;;;;;;5084594;28;20029;-84
2022/03/31 14:11:34;;;;;;;74.60;37.30;;;;;;;;;;5085920;28;20459;-84
2022/03/31 14:14:01;;;;;;;64.88;36.58;;;;;;;;;;5086275;28;20128;-84
2022/03/31 14:16:29;;;;;;;64.43;35.33;;;;;;;;;;5083286;28;20544;-84
2022/03/31 14:18:57;;;;;;;61.17;33.00;;;;;;;;;;5091533;28;20028;-84
2022/03/31 14:21:23;;;;;;;66.03;33.20;;;;;;;;;;5085022;28;20399;-84
2022/03/31 14:23:54;;;;;;;69.47;32.90;;;;;;;;;;5088566;28;20036;-84
2022/03/31 14:26:21;;;;;;;65.60;35.42;;;;;;;;;;5091043;28;20479;-84
2022/03/31 14:28:49;;;;;;;67.68;35.78;;;;;;;;;;5083626;28;20032;-84
2022/03/31 14:31:17;;;;;;;76.70;38.88;;;;;;;;;;5101735;28;20032;-84
2022/03/31 14:33:56;;;;;;;66.10;38.03;;;;;;;;;;5076420;28;20036;-84
2022/03/31 14:36:23;;;;;;;78.75;40.30;;;;;;;;;;5080858;28;20062;-84
2022/03/31 14:38:52;;;;;;;72.75;38.72;;;;;;;;;;5092049;28;20039;-84
2022/03/31 14:41:19;;;;;;;82.60;43.53;;;;;;;;;;5086323;28;20058;-84
2022/03/31 14:43:53;;;;;;;80.55;44.83;;;;;;;;;;5091948;28;20059;-84
2022/03/31 14:46:20;;;;;;;83.22;45.22;;;;;;;;;;5105141;28;20064;-84
2022/03/31 14:48:47;;;;;;;85.28;48.65;;;;;;;;;;5091809;28;20037;-83
2022/03/31 14:51:14;;;;;;;93.05;47.72;;;;;;;;;;5089140;28;20146;-83
2022/03/31 14:53:41;;;;;;;88.63;47.05;;;;;;;;;;5093764;28;20119;-84
2022/03/31 14:56:09;;;;;;;82.72;48.90;;;;;;;;;;5093285;28;20097;-84
2022/03/31 14:58:35;;;;;;;95.22;49.20;;;;;;;;;;5090301;28;20064;-84